Time;durP1;ratioP1;P1;durP2;ratioP2;P2;SDS_P1;SDS_P2;PMS_P1;PMS_P2;Temp;Humidity;BMP_temperature;BMP_pressure;BME280_temperature;BME280_humidity;BME280_pressure;Samples;Min_cycle;Max_cycle;Signal;HPM_P1;HPM_P2
2024/01/20 00:01:30;;;;;;;12.65;6.43;;;-1.60;1.00;;;;;;5244809;28;20051;-32
2024/01/20 00:04:06;;;;;;;12.93;6.50;;;-1.60;1.00;;;;;;5251873;28;20028;-32
2024/01/20 00:06:38;;;;;;;12.00;5.85;;;-1.50;1.00;;;;;;5248560;28;20036;-31
2024/01/20 00:09:12;;;;;;;12.88;7.78;;;-1.50;1.00;;;;;;5249963;28;20051;-32
2024/01/20 00:11:45;;;;;;;13.10;5.88;;;-1.60;1.00;;;;;;5242668;28;20032;-31
2024/01/20 00:14:17;;;;;;;13.10;6.70;;;-1.50;1.00;;;;;;5242664;28;20029;-32
2024/01/20 00:16:48;;;;;;;13.98;6.60;;;-1.50;1.00;;;;;;5248154;28;20034;-31
2024/01/20 00:19:21;;;;;;;10.52;5.72;;;-1.60;1.00;;;;;;5250333;28;20036;-31
2024/01/20 00:21:52;;;;;;;7.72;5.05;;;-1.40;99.90;;;;;;5249473;28;20031;-31
2024/01/20 00:24:24;;;;;;;11.50;6.20;;;-1.30;99.90;;;;;;5249775;28;20036;-31
2024/01/20 00:26:55;;;;;;;10.68;7.13;;;-1.20;99.90;;;;;;5248534;28;20354;-31
2024/01/20 00:29:26;;;;;;;11.07;5.30;;;-1.20;99.90;;;;;;5242924;28;20271;-32
2024/01/20 00:32:00;;;;;;;12.75;6.22;;;-1.20;99.90;;;;;;5247098;28;20240;-32
2024/01/20 00:34:31;;;;;;;9.45;5.13;;;-1.20;99.90;;;;;;5241428;28;20037;-31
2024/01/20 00:37:05;;;;;;;10.70;5.18;;;-1.10;99.90;;;;;;5243046;28;20047;-31
2024/01/20 00:39:36;;;;;;;10.23;5.60;;;-1.00;99.90;;;;;;5246899;28;20041;-32
2024/01/20 00:42:08;;;;;;;9.02;5.78;;;-1.00;99.90;;;;;;5250308;28;20055;-32
2024/01/20 00:44:42;;;;;;;11.05;5.90;;;-1.00;99.90;;;;;;5249263;28;20035;-32
2024/01/20 00:47:15;;;;;;;10.15;5.45;;;-1.00;99.90;;;;;;5258193;28;20038;-32
2024/01/20 00:49:48;;;;;;;11.05;6.45;;;-0.90;99.90;;;;;;5255522;28;20040;-32
2024/01/20 00:52:21;;;;;;;14.38;5.93;;;-1.00;99.90;;;;;;5271076;28;20031;-32
2024/01/20 00:54:55;;;;;;;11.30;5.90;;;-1.00;99.90;;;;;;5271098;28;20388;-32
2024/01/20 00:57:28;;;;;;;12.27;5.43;;;-0.90;99.90;;;;;;5270966;28;20038;-32
2024/01/20 01:00:00;;;;;;;10.63;5.25;;;-0.90;99.90;;;;;;5269927;28;20334;-32
2024/01/20 01:02:31;;;;;;;8.50;5.70;;;-0.80;99.90;;;;;;5263742;28;20039;-31
2024/01/20 01:05:03;;;;;;;8.48;4.95;;;-0.80;99.90;;;;;;5265775;28;20028;-32
2024/01/20 01:07:39;;;;;;;12.23;6.60;;;-0.90;99.90;;;;;;5269905;28;20340;-32
2024/01/20 01:10:11;;;;;;;10.60;5.97;;;-0.80;99.90;;;;;;5270847;28;20030;-31
2024/01/20 01:12:42;;;;;;;8.00;5.22;;;-0.90;99.90;;;;;;5268032;28;20300;-33
2024/01/20 01:15:13;;;;;;;13.15;6.90;;;-0.90;99.90;;;;;;5261703;28;20378;-31
2024/01/20 01:17:47;;;;;;;6.45;5.50;;;-0.90;99.90;;;;;;5265418;28;20032;-31
2024/01/20 01:20:18;;;;;;;7.18;5.18;;;-0.80;99.90;;;;;;5260359;28;20036;-31
2024/01/20 01:22:53;;;;;;;9.63;5.80;;;-0.80;99.90;;;;;;5259999;28;20312;-32
2024/01/20 01:25:27;;;;;;;10.25;5.30;;;-0.80;99.90;;;;;;5282987;28;20062;-32
2024/01/20 01:27:58;;;;;;;10.25;5.28;;;-0.70;99.90;;;;;;5271359;28;20212;-32
2024/01/20 01:30:34;;;;;;;10.70;5.47;;;-0.70;99.90;;;;;;5267400;28;20023;-32
2024/01/20 01:33:05;;;;;;;11.70;5.70;;;-0.80;99.90;;;;;;5270544;28;20023;-32
2024/01/20 01:35:36;;;;;;;11.60;6.07;;;-0.80;99.90;;;;;;5270814;28;20007;-32
2024/01/20 01:38:10;;;;;;;10.77;4.65;;;-0.90;99.90;;;;;;5265817;28;20032;-33
2024/01/20 01:40:41;;;;;;;10.20;5.20;;;-0.80;99.90;;;;;;5248144;28;20043;-32
2024/01/20 01:43:13;;;;;;;8.75;5.97;;;-0.80;99.90;;;;;;5264738;28;20035;-31
2024/01/20 01:45:49;;;;;;;7.45;4.88;;;-0.70;99.90;;;;;;5265832;28;20057;-32
2024/01/20 01:48:21;;;;;;;11.27;5.95;;;-0.70;99.90;;;;;;5270717;28;20020;-32
2024/01/20 01:50:55;;;;;;;11.57;6.00;;;-0.80;99.90;;;;;;5270959;28;20023;-32
2024/01/20 01:53:27;;;;;;;8.85;4.72;;;-0.70;99.90;;;;;;5285217;28;20042;-32
2024/01/20 01:56:00;;;;;;;10.82;6.35;;;-0.70;99.90;;;;;;5269433;28;20032;-32
2024/01/20 01:58:33;;;;;;;11.23;5.97;;;-0.60;99.90;;;;;;5255729;28;20346;-32
2024/01/20 02:01:12;;;;;;;13.43;6.03;;;-0.70;99.90;;;;;;5263775;28;20034;-32
2024/01/20 02:03:43;;;;;;;11.02;5.22;;;-0.70;99.90;;;;;;5251964;28;20229;-32
2024/01/20 02:06:17;;;;;;;8.85;5.93;;;-0.80;99.90;;;;;;5259945;28;20245;-32
2024/01/20 02:08:49;;;;;;;8.35;5.25;;;-0.70;99.90;;;;;;5270605;28;20058;-32
2024/01/20 02:11:31;;;;;;;15.57;6.78;;;-0.80;99.90;;;;;;5269920;28;20421;-34
2024/01/20 02:14:05;;;;;;;7.72;5.22;;;-0.80;99.90;;;;;;5252271;28;20020;-32
2024/01/20 02:16:38;;;;;;;;;;;-0.70;99.90;;;;;;5263812;28;20036;-32
2024/01/20 02:19:09;;;;;;;13.23;5.45;;;-0.80;99.90;;;;;;5270298;28;19899;-32
2024/01/20 02:21:41;;;;;;;9.85;4.45;;;-0.80;99.90;;;;;;5268114;28;20020;-32
2024/01/20 02:24:13;;;;;;;12.45;5.50;;;-0.80;99.90;;;;;;5269470;28;20036;-31
2024/01/20 02:26:44;;;;;;;9.45;5.20;;;-0.80;99.90;;;;;;5270406;28;20028;-31
2024/01/20 02:29:15;;;;;;;11.23;5.78;;;-0.90;99.90;;;;;;5268342;28;20031;-31
2024/01/20 02:31:47;;;;;;;6.90;4.85;;;-0.90;99.90;;;;;;5253046;28;20023;-31
2024/01/20 02:34:20;;;;;;;6.55;4.70;;;-0.80;99.90;;;;;;5268325;28;20247;-31
2024/01/20 02:36:59;;;;;;;11.15;5.50;;;-0.80;99.90;;;;;;5256208;28;20024;-32
2024/01/20 02:39:36;;;;;;;10.27;5.72;;;-0.80;99.90;;;;;;5270055;28;20042;-32
2024/01/20 02:42:10;;;;;;;8.55;4.72;;;-0.70;99.90;;;;;;5251721;28;20039;-31
2024/01/20 02:44:42;;;;;;;9.32;5.55;;;-0.70;99.90;;;;;;5269602;28;20044;-32
2024/01/20 02:47:13;;;;;;;11.98;5.80;;;-0.70;99.90;;;;;;5263310;28;20511;-31
2024/01/20 02:49:44;;;;;;;6.10;3.80;;;-0.80;99.90;;;;;;5270030;28;20222;-32
2024/01/20 02:52:20;;;;;;;10.30;5.50;;;-0.90;99.90;;;;;;5269810;28;20032;-32
2024/01/20 02:54:51;;;;;;;11.05;5.28;;;-0.80;99.90;;;;;;5273840;28;20034;-31
2024/01/20 02:57:23;;;;;;;12.65;6.05;;;-0.80;99.90;;;;;;5273331;28;20324;-31
2024/01/20 02:59:54;;;;;;;6.13;4.10;;;-0.80;99.90;;;;;;5273516;28;20034;-31
2024/01/20 03:02:25;;;;;;;9.80;5.80;;;-0.80;99.90;;;;;;5286774;28;20040;-32
2024/01/20 03:05:00;;;;;;;9.00;5.78;;;-0.80;99.90;;;;;;5264645;28;20338;-31
2024/01/20 03:07:31;;;;;;;7.65;4.63;;;-0.90;99.90;;;;;;5255625;28;20218;-31
2024/01/20 03:10:03;;;;;;;10.40;5.55;;;-0.80;96.50;;;;;;5272850;28;20036;-36
2024/01/20 03:12:37;;;;;;;9.98;5.70;;;-0.80;97.70;;;;;;5254780;28;20035;-31
2024/01/20 03:15:09;;;;;;;8.43;4.82;;;-0.80;88.40;;;;;;5270077;28;20036;-31
2024/01/20 03:17:42;;;;;;;8.60;4.88;;;-0.80;92.70;;;;;;5273544;28;20028;-31
2024/01/20 03:20:13;;;;;;;9.07;4.90;;;-0.70;85.40;;;;;;5273939;28;20032;-31
2024/01/20 03:22:46;;;;;;;10.55;5.35;;;-0.80;93.60;;;;;;5261600;28;20040;-31
2024/01/20 03:25:20;;;;;;;9.88;6.10;;;-0.80;62.90;;;;;;5268794;28;20374;-31
2024/01/20 03:27:52;;;;;;;;;;;-0.80;74.20;;;;;;5273704;28;20035;-32
2024/01/20 03:30:24;;;;;;;8.30;4.65;;;-0.80;99.90;;;;;;5269490;28;19908;-32
2024/01/20 03:32:59;;;;;;;10.90;5.70;;;-0.80;99.20;;;;;;5273566;28;20032;-32
2024/01/20 03:35:33;;;;;;;8.45;4.75;;;-0.80;92.70;;;;;;5267206;28;20052;-32
2024/01/20 03:38:04;;;;;;;;;;;-0.80;84.70;;;;;;5254234;28;20405;-32
2024/01/20 03:40:37;;;;;;;8.73;5.03;;;-0.90;63.40;;;;;;5257484;28;20295;-32
2024/01/20 03:43:08;;;;;;;9.90;4.72;;;-0.90;73.00;;;;;;5254456;28;20046;-32
2024/01/20 03:45:41;;;;;;;7.57;4.25;;;-0.90;59.20;;;;;;5269672;28;20042;-32
2024/01/20 03:48:15;;;;;;;8.88;4.95;;;-1.00;37.60;;;;;;5272308;28;20044;-32
2024/01/20 03:50:46;;;;;;;8.75;4.45;;;-1.00;39.60;;;;;;5272955;28;20270;-32
2024/01/20 03:53:35;;;;;;;5.75;3.95;;;-1.00;32.00;;;;;;5255608;28;20055;-31
2024/01/20 03:56:07;;;;;;;6.88;4.32;;;-0.90;52.80;;;;;;5253835;28;20243;-31
2024/01/20 03:58:41;;;;;;;7.35;4.32;;;-0.90;32.60;;;;;;5272758;28;20054;-31
2024/01/20 04:01:15;;;;;;;6.13;4.10;;;-0.90;57.30;;;;;;5269848;28;20028;-33
2024/01/20 04:03:52;;;;;;;8.50;5.03;;;-0.90;25.60;;;;;;5273463;28;20032;-33
2024/01/20 04:06:25;;;;;;;9.65;5.03;;;-0.90;35.20;;;;;;5274282;28;20461;-32
2024/01/20 04:08:56;;;;;;;8.15;4.75;;;-0.90;10.10;;;;;;5272742;28;20035;-35
2024/01/20 04:11:28;;;;;;;9.10;4.80;;;-1.00;28.90;;;;;;5260732;28;20044;-33
2024/01/20 04:14:02;;;;;;;10.05;3.95;;;-1.00;22.00;;;;;;5252362;28;20032;-36
2024/01/20 04:16:38;;;;;;;;;;;-0.90;1.00;;;;;;5233633;28;20035;-32
2024/01/20 04:19:09;;;;;;;9.30;4.97;;;-0.80;1.00;;;;;;5273298;28;19908;-32
2024/01/20 04:21:45;;;;;;;9.43;4.55;;;-0.80;1.00;;;;;;5272763;28;20032;-32
2024/01/20 04:24:18;;;;;;;3.58;2.88;;;-0.70;1.00;;;;;;5305906;27;20098;-32
2024/01/20 04:26:53;;;;;;;10.95;4.50;;;-0.70;1.00;;;;;;5271475;28;20039;-32
2024/01/20 04:29:25;;;;;;;9.32;4.30;;;-0.70;1.00;;;;;;5268367;28;20039;-32
2024/01/20 04:31:57;;;;;;;8.93;4.93;;;-0.70;1.00;;;;;;5258303;28;20319;-32
2024/01/20 04:34:30;;;;;;;7.60;4.05;;;-0.80;1.00;;;;;;5266886;28;20028;-32
2024/01/20 04:37:04;;;;;;;5.93;3.63;;;-0.90;1.00;;;;;;5273430;28;20034;-32
2024/01/20 04:39:43;;;;;;;7.47;4.55;;;-0.80;1.00;;;;;;5271993;28;20024;-32
2024/01/20 04:42:14;;;;;;;7.88;4.07;;;-0.80;1.00;;;;;;5273459;28;20032;-32
2024/01/20 04:44:47;;;;;;;9.85;4.38;;;-0.90;1.00;;;;;;5258294;28;20255;-31
2024/01/20 04:47:19;;;;;;;5.03;3.38;;;-0.90;1.00;;;;;;5267765;28;20232;-32
2024/01/20 04:49:55;;;;;;;5.28;3.88;;;-0.80;1.00;;;;;;5258887;28;20110;-31
2024/01/20 04:52:29;;;;;;;8.40;4.22;;;-0.70;1.00;;;;;;5265214;28;20044;-32
2024/01/20 04:55:01;;;;;;;4.75;3.38;;;-0.80;1.00;;;;;;5272943;28;20032;-32
2024/01/20 04:57:34;;;;;;;4.82;3.20;;;-0.80;1.00;;;;;;5271450;28;20036;-33
2024/01/20 05:00:11;;;;;;;4.90;2.78;;;-0.80;1.00;;;;;;5268318;28;20038;-32
2024/01/20 05:02:42;;;;;;;3.33;2.53;;;-0.70;1.00;;;;;;5287119;28;20044;-32
2024/01/20 05:05:16;;;;;;;5.65;3.55;;;-0.70;1.00;;;;;;5272624;28;20036;-32
2024/01/20 05:07:51;;;;;;;;;;;-0.70;1.00;;;;;;5259688;28;20047;-32
2024/01/20 05:10:23;;;;;;;3.72;2.53;;;-0.80;1.00;;;;;;5272021;28;19916;-32
2024/01/20 05:12:54;;;;;;;6.13;3.50;;;-0.80;1.00;;;;;;5268206;28;20054;-32
2024/01/20 05:15:26;;;;;;;5.93;3.55;;;-0.80;1.00;;;;;;5272694;28;20143;-32
2024/01/20 05:17:57;;;;;;;5.70;3.80;;;-0.80;1.00;;;;;;5275593;28;20539;-33
2024/01/20 05:20:34;;;;;;;7.18;4.13;;;-0.80;1.00;;;;;;5269863;28;20036;-33
2024/01/20 05:23:05;;;;;;;7.07;3.83;;;-0.70;1.00;;;;;;5258000;28;20235;-33
2024/01/20 05:25:42;;;;;;;4.93;3.03;;;-0.70;1.00;;;;;;5272021;28;20036;-32
2024/01/20 05:28:19;;;;;;;5.22;3.28;;;-0.70;1.00;;;;;;5271154;28;20215;-32
2024/01/20 05:30:50;;;;;;;3.97;2.80;;;-0.70;1.00;;;;;;5283509;28;20026;-32
2024/01/20 05:33:24;;;;;;;6.80;3.60;;;-0.70;1.00;;;;;;5271046;28;20278;-32
2024/01/20 05:35:56;;;;;;;4.85;2.78;;;-0.70;1.00;;;;;;5271063;28;20054;-32
2024/01/20 05:38:36;;;;;;;6.65;3.70;;;-0.70;1.00;;;;;;5261737;28;20040;-32
2024/01/20 05:41:13;;;;;;;7.60;3.85;;;-0.70;1.00;;;;;;5250404;28;20055;-35
2024/01/20 05:43:45;;;;;;;6.45;3.50;;;-0.70;1.00;;;;;;5265074;28;20046;-31
2024/01/20 05:46:19;;;;;;;5.60;3.17;;;-0.70;1.00;;;;;;5268101;28;20050;-31
2024/01/20 05:48:50;;;;;;;4.53;3.22;;;-0.80;1.00;;;;;;5262756;28;20267;-31
2024/01/20 05:51:22;;;;;;;8.07;3.63;;;-0.80;1.00;;;;;;5258609;28;20304;-31
2024/01/20 05:53:54;;;;;;;6.88;3.60;;;-0.80;1.00;;;;;;5283678;28;20024;-31
2024/01/20 05:56:26;;;;;;;6.57;4.45;;;-0.80;1.00;;;;;;5269940;28;20024;-31
2024/01/20 05:58:58;;;;;;;8.65;3.50;;;-0.90;1.00;;;;;;5258273;28;20031;-32
2024/01/20 06:01:29;;;;;;;4.07;3.08;;;-0.90;1.00;;;;;;5266104;28;20044;-32
2024/01/20 06:04:01;;;;;;;6.05;3.83;;;-0.90;1.00;;;;;;5263764;28;20040;-31
2024/01/20 06:06:32;;;;;;;5.60;3.22;;;-1.00;1.00;;;;;;5256870;28;20050;-32
2024/01/20 06:09:05;;;;;;;8.90;5.13;;;-1.00;1.00;;;;;;5252877;28;20035;-32
2024/01/20 06:11:39;;;;;;;7.40;3.72;;;-1.00;1.00;;;;;;5270300;28;20032;-32
2024/01/20 06:14:10;;;;;;;;;;;-1.00;1.00;;;;;;5264894;28;20038;-31
2024/01/20 06:16:44;;;;;;;8.55;4.22;;;-1.00;1.00;;;;;;5244546;28;20131;-32
2024/01/20 06:19:18;;;;;;;5.18;3.63;;;-1.00;1.00;;;;;;5267734;28;20247;-32
2024/01/20 06:21:49;;;;;;;7.38;4.03;;;-1.10;1.00;;;;;;5277251;28;20153;-32
2024/01/20 06:24:22;;;;;;;9.30;4.10;;;-1.00;1.00;;;;;;5267028;28;20036;-32
2024/01/20 06:26:58;;;;;;;10.15;4.03;;;-1.10;1.00;;;;;;5274662;28;20024;-31
2024/01/20 06:29:30;;;;;;;6.72;3.95;;;-1.10;1.00;;;;;;5275092;28;20046;-32
2024/01/20 06:32:03;;;;;;;6.15;4.03;;;-1.10;1.00;;;;;;5269430;28;20024;-32
2024/01/20 06:34:37;;;;;;;7.97;3.75;;;-1.20;1.00;;;;;;5285569;28;20036;-32
2024/01/20 06:37:08;;;;;;;7.00;3.75;;;-1.10;1.00;;;;;;5274572;28;20032;-32
2024/01/20 06:39:54;;;;;;;5.65;4.05;;;-1.10;1.00;;;;;;5274463;28;20028;-33
2024/01/20 06:42:30;;;;;;;6.95;4.03;;;-1.10;1.00;;;;;;5274614;28;20248;-31
2024/01/20 06:45:04;;;;;;;8.52;3.38;;;-1.10;1.00;;;;;;5273946;28;20034;-31
2024/01/20 06:47:36;;;;;;;6.88;3.63;;;-1.10;1.00;;;;;;5261332;28;20041;-31
2024/01/20 06:50:08;;;;;;;7.65;3.45;;;-1.10;1.00;;;;;;5244850;28;20083;-31
2024/01/20 06:52:39;;;;;;;6.35;3.45;;;-1.20;1.00;;;;;;5240408;28;20346;-31
2024/01/20 06:55:11;;;;;;;5.47;3.45;;;-1.10;1.00;;;;;;5253518;28;20040;-32
2024/01/20 06:57:42;;;;;;;10.70;4.85;;;-1.10;1.00;;;;;;5261005;28;20035;-32
2024/01/20 07:00:14;;;;;;;5.90;3.63;;;-1.00;1.00;;;;;;5284076;28;20048;-32
2024/01/20 07:02:45;;;;;;;7.05;3.65;;;-1.10;1.00;;;;;;5256310;28;20040;-32
2024/01/20 07:05:16;;;;;;;6.80;3.70;;;-1.10;1.00;;;;;;5240949;28;20395;-32
2024/01/20 07:07:48;;;;;;;8.73;4.35;;;-1.00;1.00;;;;;;5230867;28;20046;-32
2024/01/20 07:10:19;;;;;;;5.82;3.40;;;-0.90;1.00;;;;;;5230807;28;20032;-32
2024/01/20 07:12:51;;;;;;;7.55;4.15;;;-0.90;1.00;;;;;;5236568;28;20265;-32
2024/01/20 07:15:22;;;;;;;7.95;3.97;;;-0.80;1.00;;;;;;5248247;28;20044;-32
2024/01/20 07:17:56;;;;;;;10.90;4.15;;;-0.70;1.00;;;;;;5252283;28;20039;-32
2024/01/20 07:20:30;;;;;;;6.97;4.43;;;-0.80;1.00;;;;;;5252721;28;20046;-32
2024/01/20 07:23:04;;;;;;;6.18;3.50;;;-0.80;1.00;;;;;;5256280;28;20040;-32
2024/01/20 07:25:36;;;;;;;;;;;-0.70;1.00;;;;;;5235024;28;20449;-32
2024/01/20 07:28:13;;;;;;;10.15;4.13;;;-0.70;1.00;;;;;;5242855;28;19913;-32
2024/01/20 07:30:49;;;;;;;11.38;3.17;;;-0.70;1.00;;;;;;5247942;28;20344;-32
2024/01/20 07:33:22;;;;;;;7.85;3.42;;;-0.60;1.00;;;;;;5257967;28;20028;-31
2024/01/20 07:35:53;;;;;;;4.78;3.17;;;-0.50;1.00;;;;;;5270795;28;20038;-32
2024/01/20 07:38:25;;;;;;;8.55;4.15;;;-0.50;1.00;;;;;;5271931;28;20265;-33
2024/01/20 07:40:59;;;;;;;6.75;3.63;;;-0.40;1.00;;;;;;5272946;28;20024;-31
2024/01/20 07:43:30;;;;;;;;;;;-0.40;1.00;;;;;;5250152;28;20421;-31
2024/01/20 07:46:01;;;;;;;8.43;3.83;;;-0.30;1.00;;;;;;5230263;28;20001;-31
2024/01/20 07:48:35;;;;;;;6.43;3.20;;;-0.20;1.00;;;;;;5262264;28;20043;-31
2024/01/20 07:51:11;;;;;;;5.85;3.63;;;-0.20;1.00;;;;;;5252188;28;20040;-31
2024/01/20 07:53:47;;;;;;;7.60;4.25;;;-0.20;1.00;;;;;;5263176;28;20054;-30
2024/01/20 07:56:18;;;;;;;4.70;2.78;;;-0.10;1.00;;;;;;5280793;27;20042;-31
2024/01/20 07:58:53;;;;;;;7.20;4.45;;;0.00;1.00;;;;;;5293760;28;20028;-31
2024/01/20 08:01:24;;;;;;;5.47;3.05;;;0.00;1.00;;;;;;5288345;28;20023;-31
2024/01/20 08:03:56;;;;;;;7.57;3.92;;;0.10;1.00;;;;;;5265578;28;20028;-31
2024/01/20 08:06:31;;;;;;;6.78;3.67;;;0.10;1.00;;;;;;5275094;28;20038;-31
2024/01/20 08:09:02;;;;;;;4.55;3.08;;;0.20;1.00;;;;;;5293504;28;20031;-32
2024/01/20 08:11:33;;;;;;;8.57;3.50;;;0.20;1.00;;;;;;5293770;28;20207;-31
2024/01/20 08:14:07;;;;;;;6.50;4.20;;;0.30;1.00;;;;;;5294156;28;20027;-31
2024/01/20 08:16:40;;;;;;;6.13;3.65;;;0.30;1.00;;;;;;5289422;28;20046;-31
2024/01/20 08:19:11;;;;;;;4.68;3.17;;;0.30;1.00;;;;;;5267870;28;20027;-31
2024/01/20 08:21:47;;;;;;;9.00;3.65;;;0.40;1.00;;;;;;5301817;27;20207;-31
2024/01/20 08:24:18;;;;;;;10.13;3.72;;;0.50;1.00;;;;;;5300039;27;20031;-32
2024/01/20 08:26:50;;;;;;;7.88;4.55;;;0.50;1.00;;;;;;5265690;28;20036;-31
2024/01/20 08:29:23;;;;;;;5.60;3.63;;;0.60;1.00;;;;;;5267456;28;20396;-31
2024/01/20 08:31:54;;;;;;;8.30;4.32;;;0.60;1.00;;;;;;5250639;28;20032;-31
2024/01/20 08:34:26;;;;;;;8.40;4.25;;;0.70;1.00;;;;;;5265479;28;20028;-31
2024/01/20 08:37:00;;;;;;;6.55;3.85;;;0.70;1.00;;;;;;5268238;28;20028;-31
2024/01/20 08:39:31;;;;;;;10.18;4.40;;;0.80;1.00;;;;;;5255435;28;20055;-31
2024/01/20 08:42:03;;;;;;;7.63;4.03;;;0.80;1.00;;;;;;5262450;28;20035;-31
2024/01/20 08:44:40;;;;;;;6.30;4.15;;;0.90;1.00;;;;;;5270431;28;20343;-31
2024/01/20 08:47:11;;;;;;;5.57;3.72;;;0.90;1.00;;;;;;5256476;28;20340;-32
2024/01/20 08:49:44;;;;;;;7.20;3.55;;;1.00;1.00;;;;;;5250824;28;20032;-32
2024/01/20 08:52:18;;;;;;;7.53;4.13;;;1.10;1.00;;;;;;5230877;28;20021;-32
2024/01/20 08:54:49;;;;;;;;;;;1.10;1.00;;;;;;5248127;28;20028;-31
2024/01/20 08:57:22;;;;;;;4.63;3.05;;;1.20;1.00;;;;;;5235992;28;19998;-31
2024/01/20 08:59:54;;;;;;;9.38;3.95;;;1.20;1.00;;;;;;5230995;28;20250;-31
2024/01/20 09:02:28;;;;;;;6.03;3.47;;;1.30;1.00;;;;;;5241208;28;20221;-34
2024/01/20 09:05:00;;;;;;;7.32;3.65;;;1.30;1.00;;;;;;5248984;28;20028;-32
2024/01/20 09:07:32;;;;;;;6.60;3.22;;;1.40;1.00;;;;;;5234847;28;20036;-32
2024/01/20 09:10:04;;;;;;;6.65;3.92;;;1.40;1.00;;;;;;5237210;28;20233;-32
2024/01/20 09:12:35;;;;;;;7.78;3.75;;;1.50;1.00;;;;;;5242666;28;20027;-32
2024/01/20 09:15:07;;;;;;;13.27;3.95;;;1.50;1.00;;;;;;5239046;28;20317;-32
2024/01/20 09:17:38;;;;;;;6.00;3.67;;;1.50;1.00;;;;;;5235025;28;20293;-32
2024/01/20 09:20:10;;;;;;;5.22;3.28;;;1.50;1.00;;;;;;5227222;28;20036;-32
2024/01/20 09:22:41;;;;;;;5.40;3.45;;;1.60;1.00;;;;;;5224440;28;20032;-32
2024/01/20 09:25:12;;;;;;;6.93;3.25;;;1.70;1.00;;;;;;5230962;28;20900;-32
2024/01/20 09:27:44;;;;;;;6.72;3.55;;;1.80;1.00;;;;;;5242317;28;20043;-33
2024/01/20 09:30:15;;;;;;;9.38;3.83;;;1.80;1.00;;;;;;5238905;28;20332;-32
2024/01/20 09:32:46;;;;;;;5.43;3.47;;;1.90;1.00;;;;;;5244535;28;20056;-32
2024/01/20 09:35:17;;;;;;;6.25;3.45;;;1.90;1.00;;;;;;5243109;28;20047;-32
2024/01/20 09:37:49;;;;;;;6.47;3.60;;;2.00;1.00;;;;;;5229356;28;20031;-31
2024/01/20 09:40:20;;;;;;;8.48;3.85;;;2.10;1.00;;;;;;5228115;28;20036;-31
2024/01/20 09:42:51;;;;;;;6.00;3.42;;;2.30;1.00;;;;;;5243266;28;20044;-31
2024/01/20 09:45:24;;;;;;;4.70;3.33;;;2.30;1.00;;;;;;5241217;28;20429;-30
2024/01/20 09:47:58;;;;;;;6.50;3.40;;;2.30;1.00;;;;;;5229667;28;20036;-33
2024/01/20 09:50:31;;;;;;;6.75;3.15;;;2.30;1.00;;;;;;5243797;28;20337;-40
2024/01/20 09:53:14;;;;;;;6.05;3.72;;;2.30;1.00;;;;;;5243395;28;20039;-33
2024/01/20 09:55:46;;;;;;;3.55;2.47;;;2.50;1.00;;;;;;5239590;28;20218;-33
2024/01/20 09:58:18;;;;;;;4.45;3.45;;;2.70;1.00;;;;;;5233120;28;20332;-32
2024/01/20 10:00:51;;;;;;;6.05;2.92;;;2.70;1.00;;;;;;5220045;28;20040;-33
2024/01/20 10:03:26;;;;;;;5.50;3.00;;;2.90;1.00;;;;;;5225638;28;20028;-32
2024/01/20 10:05:57;;;;;;;4.47;2.50;;;3.20;1.00;;;;;;5226015;28;20457;-32
2024/01/20 10:08:30;;;;;;;4.97;2.53;;;3.60;1.00;;;;;;5244782;28;20305;-32
2024/01/20 10:11:03;;;;;;;5.85;3.15;;;3.80;1.00;;;;;;5244028;28;20045;-32
2024/01/20 10:13:34;;;;;;;3.88;3.22;;;4.00;1.00;;;;;;5237763;28;20032;-32
2024/01/20 10:16:06;;;;;;;6.32;3.28;;;3.90;1.00;;;;;;5228378;28;20039;-32
2024/01/20 10:18:37;;;;;;;14.73;6.93;;;3.90;1.00;;;;;;5239312;28;20038;-32
2024/01/20 10:21:09;;;;;;;4.57;2.92;;;4.30;1.00;;;;;;5243559;28;20051;-32
2024/01/20 10:23:40;;;;;;;6.70;2.67;;;4.60;1.00;;;;;;5243214;28;20036;-32
2024/01/20 10:26:17;;;;;;;4.95;3.03;;;4.80;1.00;;;;;;5221924;28;20036;-36
2024/01/20 10:28:53;;;;;;;4.13;2.80;;;5.00;99.90;;;;;;5242392;28;20036;-33
2024/01/20 10:31:31;;;;;;;4.22;2.83;;;5.20;99.90;;;;;;5205524;28;20045;-33
2024/01/20 10:34:03;;;;;;;5.53;2.95;;;5.40;1.00;;;;;;5234524;28;20044;-32
2024/01/20 10:36:34;;;;;;;5.43;3.22;;;5.50;1.00;;;;;;5241992;28;20235;-33
2024/01/20 10:39:08;;;;;;;4.38;2.70;;;5.60;1.00;;;;;;5241849;28;20063;-33
2024/01/20 10:41:41;;;;;;;6.68;4.05;;;5.30;1.00;;;;;;5241996;28;20051;-32
2024/01/20 10:44:21;;;;;;;4.25;2.80;;;5.30;1.00;;;;;;5225587;28;20042;-33
2024/01/20 10:47:03;;;;;;;4.78;3.22;;;5.40;1.00;;;;;;5249519;28;20063;-33
2024/01/20 10:49:38;;;;;;;8.35;3.20;;;6.00;1.00;;;;;;5253034;28;20032;-33
2024/01/20 10:52:09;;;;;;;4.88;2.80;;;6.10;99.90;;;;;;5262538;28;20024;-33
2024/01/20 10:54:45;;;;;;;3.33;2.45;;;6.50;99.90;;;;;;5261902;28;20028;-32
2024/01/20 10:57:16;;;;;;;6.43;2.30;;;6.60;99.90;;;;;;5242928;28;20043;-32
2024/01/20 10:59:55;;;;;;;2.70;1.98;;;6.50;99.90;;;;;;5262180;28;20032;-35
2024/01/20 11:02:28;;;;;;;4.07;1.90;;;6.70;1.00;;;;;;5260973;28;20220;-32
2024/01/20 11:04:59;;;;;;;2.85;2.22;;;7.20;1.00;;;;;;5261383;28;20032;-32
2024/01/20 11:07:36;;;;;;;5.15;2.53;;;7.50;1.00;;;;;;5257004;28;20224;-32
2024/01/20 11:10:08;;;;;;;3.90;2.30;;;7.30;1.00;;;;;;5265494;28;20020;-33
2024/01/20 11:12:39;;;;;;;3.10;2.10;;;7.30;1.00;;;;;;5267663;28;20028;-31
2024/01/20 11:15:18;;;;;;;2.42;1.98;;;7.30;1.00;;;;;;5264193;28;20027;-32
2024/01/20 11:17:50;;;;;;;2.30;1.95;;;6.80;1.00;;;;;;5264213;28;20308;-33
2024/01/20 11:20:24;;;;;;;4.55;2.50;;;6.70;1.00;;;;;;5244949;28;20170;-33
2024/01/20 11:22:55;;;;;;;2.63;2.13;;;6.70;1.00;;;;;;5262391;28;20028;-33
2024/01/20 11:25:31;;;;;;;2.08;1.50;;;7.10;1.00;;;;;;5265873;28;20040;-33
2024/01/20 11:28:03;;;;;;;2.92;2.05;;;6.60;1.00;;;;;;5267127;28;20032;-33
2024/01/20 11:30:41;;;;;;;2.53;2.10;;;6.70;1.00;;;;;;5264956;28;20035;-32
2024/01/20 11:33:15;;;;;;;1.98;1.77;;;6.90;1.00;;;;;;5248896;28;20043;-35
2024/01/20 11:35:46;;;;;;;4.40;2.85;;;6.90;1.00;;;;;;5259437;28;20066;-31
2024/01/20 11:38:18;;;;;;;4.82;2.97;;;7.10;1.00;;;;;;5241925;28;20032;-33
2024/01/20 11:41:02;;;;;;;2.55;2.05;;;7.30;1.00;;;;;;5245731;28;20238;-33
2024/01/20 11:43:33;;;;;;;2.72;2.15;;;7.60;1.00;;;;;;5265056;28;20054;-33
2024/01/20 11:46:05;;;;;;;2.85;1.90;;;7.40;1.00;;;;;;5259903;28;20031;-31
2024/01/20 11:48:37;;;;;;;2.70;2.05;;;6.60;1.00;;;;;;5244006;28;20262;-32
2024/01/20 11:51:09;;;;;;;3.85;1.88;;;6.50;1.00;;;;;;5240833;28;20036;-31
2024/01/20 11:53:40;;;;;;;4.53;2.42;;;6.70;1.00;;;;;;5233925;28;20032;-31
2024/01/20 11:56:11;;;;;;;4.22;2.10;;;7.60;1.00;;;;;;5204493;28;20466;-32
2024/01/20 11:58:43;;;;;;;4.80;3.25;;;8.30;1.00;;;;;;5233690;28;20384;-33
2024/01/20 12:01:18;;;;;;;4.47;2.05;;;8.60;1.00;;;;;;5240046;28;20336;-33
2024/01/20 12:03:50;;;;;;;5.53;2.95;;;7.90;1.00;;;;;;5261145;28;20040;-33
2024/01/20 12:06:21;;;;;;;4.10;2.45;;;7.80;1.00;;;;;;5241889;28;20040;-33
2024/01/20 12:08:56;;;;;;;2.30;1.77;;;8.30;1.00;;;;;;5244171;28;20055;-33
2024/01/20 12:11:27;;;;;;;;;;;8.80;1.00;;;;;;5243447;28;20063;-33
2024/01/20 12:13:59;;;;;;;3.25;2.00;;;9.20;1.00;;;;;;5221520;28;20247;-33
2024/01/20 12:16:36;;;;;;;3.03;2.45;;;9.20;1.00;;;;;;5240981;28;20033;-33
2024/01/20 12:19:09;;;;;;;4.25;1.70;;;8.50;1.00;;;;;;5244418;28;20024;-33
2024/01/20 12:21:40;;;;;;;5.68;2.85;;;7.80;1.00;;;;;;5230904;28;20028;-33
2024/01/20 12:24:12;;;;;;;3.88;2.00;;;7.60;1.00;;;;;;5244234;28;20032;-33
2024/01/20 12:26:43;;;;;;;3.22;1.98;;;8.20;1.00;;;;;;5241458;28;20036;-33
2024/01/20 12:29:15;;;;;;;2.97;1.90;;;8.20;1.00;;;;;;5231211;28;20216;-33
2024/01/20 12:31:46;;;;;;;8.18;1.80;;;7.70;1.00;;;;;;5228613;28;20039;-33
2024/01/20 12:34:18;;;;;;;2.53;2.00;;;7.70;99.90;;;;;;5244262;28;20224;-33
2024/01/20 12:36:50;;;;;;;3.92;1.38;;;8.00;99.90;;;;;;5244860;28;20028;-32
2024/01/20 12:39:23;;;;;;;2.28;1.42;;;7.60;99.90;;;;;;5246677;28;20024;-33
2024/01/20 12:41:54;;;;;;;3.90;1.95;;;7.20;99.90;;;;;;5245827;28;20032;-31
2024/01/20 12:44:28;;;;;;;2.78;1.63;;;7.40;99.90;;;;;;5245893;28;20036;-32
2024/01/20 12:46:59;;;;;;;2.13;1.58;;;8.00;1.00;;;;;;5242491;28;20036;-32
2024/01/20 12:49:33;;;;;;;2.97;1.80;;;7.40;99.90;;;;;;5239774;28;20033;-32
2024/01/20 12:52:04;;;;;;;3.20;1.88;;;7.60;99.90;;;;;;5244268;28;20032;-33
2024/01/20 12:54:36;;;;;;;2.30;1.60;;;7.40;1.00;;;;;;5243503;28;20058;-32
2024/01/20 12:57:07;;;;;;;2.30;1.15;;;7.60;99.90;;;;;;5241334;28;20024;-35
2024/01/20 12:59:39;;;;;;;4.05;1.60;;;7.40;99.90;;;;;;5242724;28;20048;-33
2024/01/20 13:02:10;;;;;;;2.60;1.40;;;7.50;99.90;;;;;;5241745;28;20032;-33
2024/01/20 13:04:42;;;;;;;1.73;1.40;;;7.50;99.90;;;;;;5242807;28;20032;-33
2024/01/20 13:07:13;;;;;;;3.35;1.58;;;7.40;99.90;;;;;;5243304;28;20054;-32
2024/01/20 13:09:46;;;;;;;2.30;1.80;;;7.60;1.00;;;;;;5244055;28;20028;-32
2024/01/20 13:12:18;;;;;;;3.00;1.70;;;8.00;1.00;;;;;;5244579;28;20042;-32
2024/01/20 13:14:50;;;;;;;2.15;1.50;;;7.70;1.00;;;;;;5245195;28;20029;-32
2024/01/20 13:17:21;;;;;;;3.40;1.75;;;7.70;1.00;;;;;;5224054;28;20055;-32
2024/01/20 13:19:55;;;;;;;1.88;1.67;;;7.80;1.00;;;;;;5244439;28;20024;-32
2024/01/20 13:22:28;;;;;;;2.08;1.65;;;8.50;1.00;;;;;;5242965;28;20202;-36
2024/01/20 13:25:03;;;;;;;2.42;1.58;;;9.00;1.00;;;;;;5245898;28;20020;-32
2024/01/20 13:27:36;;;;;;;1.17;1.05;;;8.60;1.00;;;;;;5245339;28;20035;-33